createdAt,value
2018-08-06T00:01:16.988Z,49.68
2018-08-06T00:03:47.677Z,50.08
2018-08-06T00:06:18.362Z,50.44
2018-08-06T00:08:49.063Z,50.32
2018-08-06T00:11:19.767Z,50.50
2018-08-06T00:13:50.629Z,49.96
2018-08-06T00:16:21.371Z,50.22
2018-08-06T00:18:52.403Z,49.91
2018-08-06T00:21:23.131Z,49.70
2018-08-06T00:23:53.861Z,50.56
2018-08-06T00:26:24.594Z,51.01
2018-08-06T00:28:55.275Z,51.32
2018-08-06T00:31:26.064Z,51.28
2018-08-06T00:33:56.747Z,51.10
2018-08-06T00:36:27.435Z,51.47
2018-08-06T00:38:58.134Z,51.60
2018-08-06T00:41:28.937Z,51.87
2018-08-06T00:43:59.625Z,51.57
2018-08-06T00:46:30.309Z,51.63
2018-08-06T00:49:01.036Z,51.82
2018-08-06T00:51:31.724Z,52.54
2018-08-06T00:54:02.546Z,53.06
2018-08-06T00:56:33.202Z,53.05
2018-08-06T00:59:03.908Z,53.26
2018-08-06T01:01:34.561Z,53.34
2018-08-06T01:04:05.329Z,52.84
2018-08-06T01:06:35.988Z,52.63
2018-08-06T01:09:10.155Z,53.17
2018-08-06T01:11:40.800Z,53.49
2018-08-06T01:14:11.539Z,53.27
2018-08-06T01:16:42.452Z,53.35
2018-08-06T01:19:13.170Z,53.93
2018-08-06T01:21:43.895Z,53.91
2018-08-06T01:24:14.651Z,54.41
2018-08-06T01:26:45.315Z,54.85
2018-08-06T01:29:15.982Z,54.84
2018-08-06T01:31:46.672Z,55.11
2018-08-06T01:34:17.380Z,55.76
2018-08-06T01:36:47.718Z,55.68
2018-08-06T01:39:18.291Z,55.81
2018-08-06T01:41:49.020Z,55.70
2018-08-06T01:44:19.714Z,55.53
2018-08-06T01:46:50.414Z,56.19
2018-08-06T01:49:21.065Z,56.03
2018-08-06T01:51:51.699Z,56.01
2018-08-06T01:54:22.410Z,55.95
2018-08-06T01:56:53.108Z,55.96
2018-08-06T01:59:23.765Z,55.68
2018-08-06T02:01:54.382Z,55.91
2018-08-06T02:04:25.068Z,56.49
2018-08-06T02:06:55.724Z,56.36
2018-08-06T02:09:26.392Z,56.19
2018-08-06T02:11:57.045Z,56.49
2018-08-06T02:14:27.795Z,56.80
2018-08-06T02:16:58.467Z,56.46
2018-08-06T02:19:29.115Z,57.25
2018-08-06T02:21:59.862Z,57.51
2018-08-06T02:24:30.667Z,57.33
2018-08-06T02:27:01.342Z,57.75
2018-08-06T02:29:32.067Z,57.41
2018-08-06T02:32:02.769Z,57.90
2018-08-06T02:34:33.446Z,57.96
2018-08-06T02:37:04.257Z,58.30
2018-08-06T02:39:34.937Z,58.13
2018-08-06T02:42:05.792Z,58.20
2018-08-06T02:44:36.477Z,58.66
2018-08-06T02:47:07.639Z,58.76
2018-08-06T02:49:38.359Z,58.74
2018-08-06T02:52:09.108Z,58.72
2018-08-06T02:54:39.786Z,58.90
2018-08-06T02:57:10.465Z,59.04
2018-08-06T02:59:41.203Z,59.39
2018-08-06T03:02:11.942Z,59.21
2018-08-06T03:04:42.657Z,59.44
2018-08-06T03:07:13.446Z,59.66
2018-08-06T03:09:44.321Z,59.79
2018-08-06T03:12:15.084Z,59.95
2018-08-06T03:14:45.763Z,59.69
2018-08-06T03:17:16.441Z,60.25
2018-08-06T03:19:47.107Z,60.43
2018-08-06T03:22:17.831Z,60.45
2018-08-06T03:24:48.507Z,60.33
2018-08-06T03:27:19.223Z,60.75
2018-08-06T03:29:49.936Z,61.29
2018-08-06T03:32:20.855Z,61.62
2018-08-06T03:34:51.525Z,61.43
2018-08-06T03:37:22.251Z,61.29
2018-08-06T03:39:52.733Z,61.54
2018-08-06T03:42:23.472Z,61.56
2018-08-06T03:44:54.180Z,61.68
2018-08-06T03:47:24.906Z,62.02
2018-08-06T03:49:55.543Z,61.84
2018-08-06T03:52:26.233Z,62.35
2018-08-06T03:54:56.950Z,62.66
2018-08-06T03:57:27.621Z,62.52
2018-08-06T03:59:58.334Z,62.75
2018-08-06T04:02:29.038Z,62.85
2018-08-06T04:04:59.689Z,62.54
2018-08-06T04:07:30.412Z,62.81
2018-08-06T04:10:01.096Z,62.72
2018-08-06T04:12:31.897Z,62.21
2018-08-06T04:15:02.613Z,62.27
2018-08-06T04:17:33.320Z,62.45
2018-08-06T04:20:04.065Z,62.73
2018-08-06T04:22:34.786Z,62.58
2018-08-06T04:25:05.774Z,62.42
2018-08-06T04:27:36.809Z,63.02
2018-08-06T04:30:11.603Z,62.79
2018-08-06T04:32:42.498Z,62.90
2018-08-06T04:35:13.256Z,62.81
2018-08-06T04:37:44.707Z,63.38
2018-08-06T04:40:15.526Z,63.43
2018-08-06T04:42:46.203Z,63.31
2018-08-06T04:45:16.948Z,63.49
2018-08-06T04:47:47.654Z,63.56
2018-08-06T04:50:18.443Z,63.30
2018-08-06T04:52:49.142Z,63.14
2018-08-06T04:55:19.903Z,62.80
2018-08-06T04:57:50.653Z,62.64
2018-08-06T05:00:21.399Z,63.05
2018-08-06T05:02:52.149Z,62.95
2018-08-06T05:05:22.870Z,62.54
2018-08-06T05:07:54.088Z,62.34
2018-08-06T05:10:24.863Z,62.63
2018-08-06T05:12:55.544Z,62.69
2018-08-06T05:15:26.249Z,62.78
2018-08-06T05:17:56.989Z,62.86
2018-08-06T05:20:27.677Z,62.39
2018-08-06T05:22:58.424Z,62.00
2018-08-06T05:25:28.875Z,62.32
2018-08-06T05:28:00.594Z,61.80
2018-08-06T05:30:31.693Z,61.66
2018-08-06T05:33:02.662Z,61.65
2018-08-06T05:35:33.414Z,61.47
2018-08-06T05:38:04.867Z,59.95
2018-08-06T05:40:35.680Z,59.46
2018-08-06T05:43:06.605Z,58.72
2018-08-06T05:45:37.647Z,57.76
2018-08-06T05:48:08.499Z,57.76
2018-08-06T05:50:39.319Z,57.67
2018-08-06T05:53:10.049Z,57.16
2018-08-06T05:55:40.803Z,57.57
2018-08-06T05:58:11.668Z,56.98
2018-08-06T06:00:42.391Z,57.06
2018-08-06T06:03:13.236Z,55.79
2018-08-06T06:05:44.050Z,56.12
2018-08-06T06:08:14.837Z,55.12
2018-08-06T06:10:45.676Z,55.53
2018-08-06T06:13:16.465Z,55.05
2018-08-06T06:15:47.237Z,54.16
2018-08-06T06:18:18.057Z,52.98
2018-08-06T06:20:49.009Z,53.02
2018-08-06T06:29:29.008Z,52.93
2018-08-06T06:31:59.961Z,52.63
2018-08-06T06:34:30.783Z,51.65
2018-08-06T06:37:01.519Z,51.12
2018-08-06T06:39:32.392Z,51.02
2018-08-06T06:42:03.490Z,50.73
2018-08-06T06:44:34.369Z,50.83
2018-08-06T06:47:05.301Z,49.65
2018-08-06T06:49:36.140Z,49.81
2018-08-06T06:52:07.126Z,48.91
2018-08-06T06:54:37.883Z,49.44
2018-08-06T06:57:08.758Z,49.24
2018-08-06T06:59:39.487Z,48.84
2018-08-06T07:02:10.449Z,48.85
2018-08-06T07:04:41.372Z,47.65
2018-08-06T07:07:12.272Z,47.10
2018-08-06T07:09:43.079Z,46.43
2018-08-06T07:12:14.091Z,46.17
2018-08-06T07:14:44.979Z,45.98
2018-08-06T07:17:15.463Z,44.70
2018-08-06T07:19:46.238Z,44.95
2018-08-06T07:22:16.973Z,43.45
2018-08-06T07:24:47.800Z,44.10
2018-08-06T07:27:18.483Z,43.73
2018-08-06T07:29:49.162Z,42.50
2018-08-06T07:32:19.899Z,41.68
2018-08-06T07:34:50.584Z,42.19
2018-08-06T07:37:21.265Z,41.57
2018-08-06T07:39:51.947Z,40.62
2018-08-06T07:42:22.656Z,40.41
2018-08-06T07:44:53.377Z,40.14
2018-08-06T07:47:24.091Z,39.70
2018-08-06T07:49:54.839Z,39.89
2018-08-06T07:52:25.594Z,39.44
2018-08-06T07:54:56.295Z,38.54
2018-08-06T07:57:26.982Z,38.61
2018-08-06T07:59:57.643Z,38.10
2018-08-06T08:02:28.385Z,37.10
2018-08-06T08:04:59.147Z,36.77
2018-08-06T08:07:29.983Z,36.12
2018-08-06T08:10:00.659Z,36.30
2018-08-06T08:12:31.456Z,36.05
2018-08-06T08:15:02.155Z,35.87
2018-08-06T08:17:32.872Z,35.47
2018-08-06T08:20:03.783Z,34.69
2018-08-06T08:22:34.631Z,33.81
2018-08-06T08:25:07.497Z,34.57
2018-08-06T08:27:38.245Z,33.04
2018-08-06T08:30:11.044Z,33.04
2018-08-06T08:32:41.712Z,32.08
2018-08-06T08:35:13.784Z,32.23
2018-08-06T08:37:44.627Z,31.24
2018-08-06T08:40:18.124Z,31.21
2018-08-06T08:42:48.845Z,29.85
2018-08-06T08:45:19.652Z,28.93
2018-08-06T08:47:50.418Z,29.49
2018-08-06T08:50:21.496Z,29.26
2018-08-06T08:52:52.391Z,28.98
2018-08-06T08:55:23.140Z,29.47
2018-08-06T08:57:53.890Z,29.79
2018-08-06T09:00:24.601Z,28.65
2018-08-06T09:02:55.307Z,28.16
2018-08-06T09:05:26.028Z,27.17
2018-08-06T09:07:56.713Z,28.18
2018-08-06T09:10:27.425Z,27.76
2018-08-06T09:12:58.138Z,26.71
2018-08-06T09:15:29.089Z,25.37
2018-08-06T09:17:59.842Z,26.12
2018-08-06T09:20:30.601Z,25.30
2018-08-06T09:23:32.354Z,25.11
2018-08-06T09:26:03.083Z,27.69
2018-08-06T09:28:33.819Z,25.05
2018-08-06T09:31:04.660Z,25.95
2018-08-06T09:33:35.358Z,25.18
2018-08-06T09:36:05.738Z,23.97
2018-08-06T09:38:35.961Z,23.80
2018-08-06T09:41:06.570Z,24.69
2018-08-06T09:43:37.374Z,24.67
2018-08-06T09:46:08.100Z,24.58
2018-08-06T09:48:38.797Z,25.04
2018-08-06T09:51:09.483Z,24.75
2018-08-06T09:53:40.204Z,22.90
2018-08-06T09:56:11.844Z,22.49
2018-08-06T09:58:42.538Z,23.10
2018-08-06T10:01:18.381Z,24.70
2018-08-06T10:03:49.051Z,23.53
2018-08-06T10:06:19.963Z,23.53
2018-08-06T10:08:50.450Z,24.19
2018-08-06T10:11:21.146Z,22.23
2018-08-06T10:13:51.878Z,21.73
2018-08-06T10:16:22.608Z,21.91
2018-08-06T10:18:53.358Z,21.15
2018-08-06T10:21:24.060Z,21.75
2018-08-06T10:23:54.712Z,20.95
2018-08-06T10:26:25.352Z,20.99
2018-08-06T10:28:56.030Z,21.69
2018-08-06T10:31:26.807Z,20.55
2018-08-06T10:33:57.523Z,21.68
2018-08-06T10:36:28.204Z,20.98
2018-08-06T10:38:58.924Z,22.25
2018-08-06T10:41:29.609Z,21.80
2018-08-06T10:44:00.267Z,22.22
2018-08-06T10:46:30.954Z,21.47
2018-08-06T10:49:02.153Z,20.68
2018-08-06T10:51:32.918Z,21.65
2018-08-06T10:54:03.671Z,20.97
2018-08-06T10:56:34.843Z,22.49
2018-08-06T10:59:05.882Z,19.98
2018-08-06T11:01:36.558Z,19.50
2018-08-06T11:04:07.647Z,20.08
2018-08-06T11:06:38.404Z,21.38
2018-08-06T11:09:09.383Z,20.72
2018-08-06T11:11:39.751Z,21.30
2018-08-06T11:14:10.349Z,21.23
2018-08-06T11:16:40.982Z,21.08
2018-08-06T11:19:11.674Z,21.25
2018-08-06T11:21:42.366Z,21.51
2018-08-06T11:24:13.257Z,21.54
2018-08-06T11:26:43.933Z,18.95
2018-08-06T11:29:14.594Z,19.44
2018-08-06T11:31:45.296Z,19.25
2018-08-06T11:34:15.917Z,19.53
2018-08-06T11:36:46.608Z,18.96
2018-08-06T11:39:17.258Z,19.04
2018-08-06T11:41:47.937Z,19.74
2018-08-06T11:44:18.598Z,19.29
2018-08-06T11:46:49.318Z,17.90
2018-08-06T11:49:19.966Z,18.95
2018-08-06T11:51:50.635Z,18.05
2018-08-06T11:54:21.293Z,18.42
2018-08-06T11:56:51.796Z,18.46
2018-08-06T11:59:22.154Z,18.83
2018-08-06T12:01:52.863Z,18.57
2018-08-06T12:04:23.511Z,17.38
2018-08-06T12:06:54.214Z,16.71
2018-08-06T12:09:24.893Z,17.28
2018-08-06T12:11:55.603Z,17.61
2018-08-06T12:14:27.125Z,18.83
2018-08-06T12:16:57.753Z,19.89
2018-08-06T12:19:28.511Z,16.86
2018-08-06T12:21:59.162Z,17.67
2018-08-06T12:24:29.881Z,18.06
2018-08-06T12:27:00.554Z,17.30
2018-08-06T12:29:31.205Z,18.15
2018-08-06T12:32:01.919Z,17.70
2018-08-06T12:34:32.626Z,17.72
2018-08-06T12:37:03.313Z,18.57
2018-08-06T12:39:34.047Z,17.64
2018-08-06T12:42:04.801Z,17.33
2018-08-06T12:44:35.458Z,17.04
2018-08-06T12:47:06.261Z,14.72
2018-08-06T12:49:36.894Z,15.47
2018-08-06T12:52:07.629Z,14.70
2018-08-06T12:54:38.303Z,14.65
2018-08-06T12:57:09.099Z,15.17
2018-08-06T12:59:39.662Z,15.38
2018-08-06T13:02:10.386Z,16.52
2018-08-06T13:04:41.035Z,15.90
2018-08-06T13:07:11.722Z,16.26
2018-08-06T13:09:42.436Z,14.25
2018-08-06T13:12:13.132Z,14.72
2018-08-06T13:14:44.031Z,13.66
2018-08-06T13:17:14.681Z,13.72
2018-08-06T13:19:45.366Z,13.32
2018-08-06T13:22:16.025Z,14.33
2018-08-06T13:24:46.705Z,13.98
2018-08-06T13:27:17.380Z,15.14
2018-08-06T13:29:48.070Z,14.96
2018-08-06T13:32:18.789Z,14.89
2018-08-06T13:34:49.502Z,13.47
2018-08-06T13:37:20.222Z,14.71
2018-08-06T13:39:50.904Z,14.79
2018-08-06T13:42:21.533Z,13.85
2018-08-06T13:44:52.232Z,11.87
2018-08-06T13:47:22.860Z,12.03
2018-08-06T13:49:53.701Z,12.03
2018-08-06T13:52:24.433Z,12.95
2018-08-06T13:54:55.117Z,13.00
2018-08-06T13:57:25.781Z,13.47
2018-08-06T13:59:56.490Z,13.46
2018-08-06T14:02:27.198Z,12.78
2018-08-06T14:04:57.929Z,12.39
2018-08-06T14:07:28.602Z,11.64
2018-08-06T14:09:59.284Z,12.24
2018-08-06T14:12:29.948Z,13.20
2018-08-06T14:15:00.628Z,13.69
2018-08-06T14:17:31.322Z,14.64
2018-08-06T14:20:02.341Z,14.35
2018-08-06T14:22:33.793Z,14.29
2018-08-06T14:25:05.020Z,12.82
2018-08-06T14:27:36.683Z,12.96
2018-08-06T14:30:10.677Z,13.81
2018-08-06T14:32:41.849Z,13.47
2018-08-06T14:35:12.667Z,12.73
2018-08-06T14:37:43.313Z,12.74
2018-08-06T14:40:18.683Z,12.44
2018-08-06T14:42:49.366Z,12.59
2018-08-06T14:45:20.059Z,12.77
2018-08-06T14:47:50.797Z,12.07
2018-08-06T14:50:21.512Z,12.39
2018-08-06T14:52:52.305Z,11.93
2018-08-06T14:55:23.030Z,12.78
2018-08-06T14:57:53.735Z,13.14
2018-08-06T15:00:24.391Z,13.64
2018-08-06T15:02:55.059Z,13.78
2018-08-06T15:05:25.744Z,13.45
2018-08-06T15:07:56.494Z,13.21
2018-08-06T15:10:26.813Z,12.85
2018-08-06T15:12:57.441Z,12.76
2018-08-06T15:15:28.185Z,13.31
2018-08-06T15:17:58.826Z,12.98
2018-08-06T15:20:29.452Z,13.18
2018-08-06T15:23:00.141Z,12.84
2018-08-06T15:25:31.798Z,12.88
2018-08-06T15:28:02.387Z,12.89
2018-08-06T15:30:33.174Z,13.45
2018-08-06T15:33:03.894Z,13.87
2018-08-06T15:35:34.591Z,13.70
2018-08-06T15:38:05.629Z,13.92
2018-08-06T15:41:07.698Z,14.74
2018-08-06T15:43:38.353Z,13.70
2018-08-06T15:46:09.085Z,14.05
2018-08-06T15:48:39.789Z,14.23
2018-08-06T15:51:10.529Z,13.77
2018-08-06T15:53:41.245Z,14.46
2018-08-06T15:56:11.954Z,14.59
2018-08-06T15:58:43.449Z,14.20
2018-08-06T16:01:14.153Z,13.82
2018-08-06T16:03:44.848Z,14.82
2018-08-06T16:06:15.463Z,15.44
2018-08-06T16:08:46.165Z,15.54
2018-08-06T16:11:16.885Z,15.57
2018-08-06T16:13:47.581Z,15.46
2018-08-06T16:16:18.220Z,16.30
2018-08-06T16:18:48.894Z,16.03
2018-08-06T16:21:19.520Z,15.22
2018-08-06T16:23:50.185Z,14.94
2018-08-06T16:26:20.876Z,15.22
2018-08-06T16:28:51.586Z,14.68
2018-08-06T16:31:23.137Z,14.97
2018-08-06T16:33:53.898Z,15.54
2018-08-06T16:36:24.579Z,15.55
2018-08-06T16:38:55.290Z,15.23
2018-08-06T16:41:25.995Z,15.10
2018-08-06T16:43:56.755Z,15.05
2018-08-06T16:46:27.450Z,14.68
2018-08-06T16:48:58.159Z,14.53
2018-08-06T16:51:28.865Z,14.57
2018-08-06T16:53:59.608Z,14.33
2018-08-06T16:56:30.301Z,14.88
2018-08-06T16:59:01.029Z,15.03
2018-08-06T17:01:31.657Z,14.99
2018-08-06T17:04:02.395Z,15.90
2018-08-06T17:06:33.096Z,15.64
2018-08-06T17:09:04.161Z,15.68
2018-08-06T17:11:34.821Z,16.23
2018-08-06T17:14:06.536Z,15.98
2018-08-06T17:16:37.242Z,15.42
2018-08-06T17:19:07.925Z,16.14
2018-08-06T17:21:38.627Z,16.70
2018-08-06T17:24:09.321Z,16.59
2018-08-06T17:26:39.993Z,16.80
2018-08-06T17:29:10.654Z,16.04
2018-08-06T17:31:41.301Z,16.63
2018-08-06T17:34:11.962Z,16.13
2018-08-06T17:36:42.603Z,16.76
2018-08-06T17:39:13.560Z,16.17
2018-08-06T17:41:44.221Z,16.33
2018-08-06T17:44:14.865Z,16.25
2018-08-06T17:46:45.598Z,16.48
2018-08-06T17:49:16.262Z,16.83
2018-08-06T17:51:46.909Z,16.75
2018-08-06T17:54:17.612Z,17.13
2018-08-06T17:56:48.262Z,17.01
2018-08-06T17:59:18.963Z,17.50
2018-08-06T18:01:49.668Z,17.62
2018-08-06T18:04:20.318Z,17.49
2018-08-06T18:06:50.990Z,17.58
2018-08-06T18:09:21.657Z,18.21
2018-08-06T18:11:52.282Z,17.63
2018-08-06T18:14:22.960Z,18.35
2018-08-06T18:16:53.649Z,19.75
2018-08-06T18:19:24.277Z,20.55
2018-08-06T18:21:54.909Z,20.54
2018-08-06T18:24:25.191Z,20.73
2018-08-06T18:26:55.802Z,20.63
2018-08-06T18:29:26.395Z,21.53
2018-08-06T18:31:57.069Z,21.49
2018-08-06T18:34:27.736Z,21.87
2018-08-06T18:36:58.470Z,22.87
2018-08-06T18:39:29.129Z,23.02
2018-08-06T18:41:59.867Z,24.11
2018-08-06T18:44:30.531Z,24.67
2018-08-06T18:47:01.226Z,24.90
2018-08-06T18:49:31.863Z,25.46
2018-08-06T18:52:02.611Z,25.52
2018-08-06T18:54:33.374Z,25.77
2018-08-06T18:57:04.143Z,27.26
2018-08-06T18:59:34.797Z,28.29
2018-08-06T19:02:05.561Z,29.63
2018-08-06T19:04:36.293Z,29.34
2018-08-06T19:07:07.027Z,30.02
2018-08-06T19:09:37.848Z,31.46
2018-08-06T19:12:13.903Z,31.53
2018-08-06T19:14:44.566Z,32.17
2018-08-06T19:17:15.402Z,31.65
2018-08-06T19:19:46.093Z,31.45
2018-08-06T19:22:17.538Z,31.76
2018-08-06T19:24:53.075Z,31.07
2018-08-06T19:27:23.593Z,31.67
2018-08-06T19:29:54.380Z,30.87
2018-08-06T19:32:26.062Z,31.31
2018-08-06T19:34:56.736Z,30.84
2018-08-06T19:37:32.554Z,31.24
2018-08-06T19:40:03.247Z,31.19
2018-08-06T19:42:39.194Z,31.55
2018-08-06T19:45:09.929Z,31.63
2018-08-06T19:47:41.062Z,31.93
2018-08-06T19:50:17.118Z,32.72
2018-08-06T19:52:47.894Z,32.30
2018-08-06T19:55:23.757Z,32.28
2018-08-06T19:57:54.478Z,32.74
2018-08-06T20:00:26.279Z,33.28
2018-08-06T20:02:57.050Z,33.58
2018-08-06T20:05:27.732Z,33.06
2018-08-06T20:07:58.593Z,32.54
2018-08-06T20:10:29.423Z,32.60
2018-08-06T20:13:01.779Z,32.97
2018-08-06T20:15:32.531Z,33.02
2018-08-06T20:18:04.278Z,33.03
2018-08-06T20:20:34.948Z,32.74
2018-08-06T20:23:05.830Z,33.37
2018-08-06T20:25:36.534Z,32.73
2018-08-06T20:28:07.334Z,32.84
2018-08-06T20:30:38.081Z,33.15
2018-08-06T20:33:08.869Z,33.08
2018-08-06T20:35:39.610Z,33.87
2018-08-06T20:38:10.329Z,33.72
2018-08-06T20:40:40.989Z,32.68
2018-08-06T20:43:11.688Z,32.89
2018-08-06T20:45:42.417Z,33.27
2018-08-06T20:48:13.118Z,33.35
2018-08-06T20:50:43.854Z,34.09
2018-08-06T20:53:14.551Z,34.21
2018-08-06T20:55:45.242Z,34.06
2018-08-06T20:58:15.923Z,33.36
2018-08-06T21:00:46.689Z,33.68
2018-08-06T21:03:17.363Z,34.26
2018-08-06T21:05:48.080Z,34.66
2018-08-06T21:08:18.735Z,33.62
2018-08-06T21:10:49.491Z,34.88
2018-08-06T21:13:20.219Z,34.83
2018-08-06T21:15:51.250Z,35.38
2018-08-06T21:18:21.863Z,35.82
2018-08-06T21:20:52.545Z,35.82
2018-08-06T21:23:23.265Z,36.46
2018-08-06T21:25:56.798Z,36.71
2018-08-06T21:28:27.454Z,36.89
2018-08-06T21:30:58.174Z,37.00
2018-08-06T21:33:28.859Z,37.15
2018-08-06T21:35:59.553Z,37.36
2018-08-06T21:38:36.781Z,36.82
2018-08-06T21:41:08.473Z,37.31
2018-08-06T21:43:39.482Z,37.07
2018-08-06T21:46:11.613Z,37.72
2018-08-06T21:48:42.615Z,38.32
2018-08-06T21:51:13.348Z,37.95
2018-08-06T21:53:44.015Z,38.39
2018-08-06T21:56:14.651Z,38.69
2018-08-06T21:58:45.432Z,38.30
2018-08-06T22:01:16.192Z,38.61
2018-08-06T22:03:46.894Z,38.73
2018-08-06T22:06:17.538Z,39.28
2018-08-06T22:08:48.259Z,39.42
2018-08-06T22:11:19.166Z,39.60
2018-08-06T22:13:49.929Z,39.79
2018-08-06T22:16:20.683Z,39.78
2018-08-06T22:18:51.366Z,37.48
2018-08-06T22:21:22.057Z,34.98
2018-08-06T22:23:52.787Z,36.45
2018-08-06T22:26:23.439Z,38.18
2018-08-06T22:28:54.126Z,39.78
2018-08-06T22:31:25.129Z,37.33
2018-08-06T22:33:55.822Z,36.30
2018-08-06T22:36:26.985Z,34.90
2018-08-06T22:38:57.724Z,37.02
2018-08-06T22:41:29.073Z,37.27
2018-08-06T22:43:59.914Z,38.02
2018-08-06T22:46:30.587Z,37.37
2018-08-06T22:49:01.266Z,37.85
2018-08-06T22:51:31.896Z,38.67
2018-08-06T22:54:02.542Z,37.72
2018-08-06T22:56:33.218Z,36.82
2018-08-06T22:59:03.954Z,37.16
2018-08-06T23:01:34.566Z,38.08
2018-08-06T23:04:05.573Z,38.48
2018-08-06T23:06:36.249Z,38.44
2018-08-06T23:09:11.389Z,40.43
2018-08-06T23:11:42.529Z,41.04
2018-08-06T23:14:13.218Z,41.44
2018-08-06T23:16:43.895Z,40.94
2018-08-06T23:19:14.549Z,38.49
2018-08-06T23:21:45.201Z,37.96
2018-08-06T23:24:16.795Z,37.71
2018-08-06T23:26:47.448Z,39.08
2018-08-06T23:29:19.038Z,38.98
2018-08-06T23:31:49.671Z,39.71
2018-08-06T23:34:20.380Z,40.64
2018-08-06T23:36:51.070Z,41.41
2018-08-06T23:39:21.743Z,41.26
2018-08-06T23:41:52.508Z,40.38
2018-08-06T23:44:23.237Z,40.78
2018-08-06T23:46:53.954Z,42.74
2018-08-06T23:49:24.629Z,42.38
2018-08-06T23:51:55.404Z,42.92
2018-08-06T23:54:26.074Z,42.07
2018-08-06T23:56:56.752Z,40.86
2018-08-06T23:59:27.413Z,40.48
